Aviation Digital Data Service (ADDS)

Output produced by METARs form (1648 UTC 24 October 2014)
found at http://aviationweather.gov/adds/metars/
 
KSAN 241453Z 2415/2518 VRB04KT P6SM SKC 
     FM242000 27008KT P6SM FEW060 
     FM250130 VRB04KT P6SM FEW004 SCT060 
     FM250600 17004KT 2SM BR VCFG OVC005 
     FM251300 18005KT 3SM BR OVC007 
     FM251700 23006KT P6SM SCT008